createdAt,value
2022-11-27T00:01:11.838Z,6.48
2022-11-27T00:03:58.812Z,6.49
2022-11-27T00:06:44.973Z,6.47
2022-11-27T00:09:30.811Z,6.45
2022-11-27T00:12:49.576Z,6.43
2022-11-27T00:15:57.051Z,6.45
2022-11-27T00:18:43.503Z,6.46
2022-11-27T00:21:31.778Z,6.43
2022-11-27T00:24:17.456Z,6.40
2022-11-27T00:27:03.660Z,6.45
2022-11-27T00:29:55.070Z,6.37
2022-11-27T00:32:40.784Z,6.47
2022-11-27T00:35:26.460Z,6.47
2022-11-27T00:38:12.221Z,6.45
2022-11-27T00:41:26.021Z,6.43
2022-11-27T00:44:13.589Z,6.42
2022-11-27T00:46:59.287Z,6.39
2022-11-27T00:49:46.744Z,6.38
2022-11-27T00:52:33.180Z,6.37
2022-11-27T00:55:18.936Z,6.37
2022-11-27T00:58:04.785Z,6.37
2022-11-27T01:01:02.349Z,6.36
2022-11-27T01:03:48.889Z,6.34
2022-11-27T01:06:35.117Z,6.32
2022-11-27T01:09:21.085Z,6.30
2022-11-27T01:12:07.656Z,6.28
2022-11-27T01:14:53.537Z,6.21
2022-11-27T01:17:39.257Z,6.24
2022-11-27T01:20:24.935Z,6.22
2022-11-27T01:23:10.636Z,6.21
2022-11-27T01:25:56.611Z,6.20
2022-11-27T01:28:42.594Z,6.20
2022-11-27T01:31:30.638Z,6.20
2022-11-27T01:34:18.148Z,6.20
2022-11-27T01:37:03.913Z,6.21
2022-11-27T01:39:49.581Z,6.20
2022-11-27T01:42:35.395Z,6.13
2022-11-27T01:45:22.647Z,6.11
2022-11-27T01:48:09.484Z,6.10
2022-11-27T01:50:55.485Z,6.09
2022-11-27T01:53:41.491Z,6.10
2022-11-27T01:56:28.457Z,6.11
2022-11-27T01:59:14.915Z,6.10
2022-11-27T02:02:02.095Z,6.10
2022-11-27T02:04:51.021Z,6.06
2022-11-27T02:07:37.358Z,6.09
2022-11-27T02:10:44.931Z,6.07
2022-11-27T02:13:32.460Z,6.11
2022-11-27T02:16:34.065Z,6.10
2022-11-27T02:20:01.585Z,6.11
2022-11-27T02:23:16.557Z,6.03
2022-11-27T02:26:30.200Z,6.11
2022-11-27T02:29:21.625Z,6.05
2022-11-27T02:32:14.290Z,6.08
2022-11-27T02:35:06.921Z,6.02
2022-11-27T02:38:00.450Z,6.06
2022-11-27T02:40:55.060Z,6.02
2022-11-27T02:43:46.689Z,5.99
2022-11-27T02:46:33.192Z,5.96
2022-11-27T02:49:19.494Z,5.96
2022-11-27T02:52:06.148Z,5.86
2022-11-27T02:54:55.125Z,5.89
2022-11-27T02:57:42.146Z,5.84
2022-11-27T03:00:29.895Z,5.79
2022-11-27T03:03:21.387Z,5.73
2022-11-27T03:06:12.094Z,5.66
2022-11-27T03:09:08.302Z,5.69
2022-11-27T03:11:54.910Z,5.64
2022-11-27T03:14:42.878Z,5.57
2022-11-27T03:17:31.704Z,5.58
2022-11-27T03:20:23.545Z,5.51
2022-11-27T03:23:09.330Z,5.48
2022-11-27T03:26:03.034Z,5.44
2022-11-27T03:28:49.949Z,5.37
2022-11-27T03:31:36.062Z,5.31
2022-11-27T03:34:21.984Z,5.34
2022-11-27T03:37:08.305Z,5.26
2022-11-27T03:39:55.120Z,5.29
2022-11-27T03:43:12.638Z,5.26
2022-11-27T03:46:10.157Z,5.20
2022-11-27T03:49:44.801Z,5.20
2022-11-27T03:52:44.194Z,5.18
2022-11-27T03:55:51.575Z,5.15
2022-11-27T03:58:49.130Z,5.13
2022-11-27T04:01:35.116Z,5.18
2022-11-27T04:04:21.149Z,5.21
2022-11-27T04:07:07.274Z,5.22
2022-11-27T04:09:53.489Z,5.23
2022-11-27T04:12:39.214Z,5.23
2022-11-27T04:15:25.277Z,5.25
2022-11-27T04:18:11.139Z,5.26
2022-11-27T04:21:03.787Z,5.26
2022-11-27T04:24:01.075Z,5.27
2022-11-27T04:26:47.617Z,5.31
2022-11-27T04:29:33.580Z,5.31
2022-11-27T04:32:20.968Z,5.33
2022-11-27T04:35:07.206Z,5.31
2022-11-27T04:37:52.845Z,5.38
2022-11-27T04:40:38.708Z,5.39
2022-11-27T04:43:24.475Z,5.35
2022-11-27T04:46:10.316Z,5.32
2022-11-27T04:48:56.256Z,5.35
2022-11-27T04:51:41.929Z,5.28
2022-11-27T04:54:27.654Z,5.30
2022-11-27T04:57:13.332Z,5.25
2022-11-27T04:59:59.201Z,5.26
2022-11-27T05:02:45.086Z,5.22
2022-11-27T05:05:30.875Z,5.20
2022-11-27T05:08:16.484Z,5.20
2022-11-27T05:11:08.342Z,5.17
2022-11-27T05:14:14.391Z,5.17
2022-11-27T05:17:00.254Z,5.10
2022-11-27T05:19:46.375Z,5.16
2022-11-27T05:22:32.433Z,5.17
2022-11-27T05:25:18.355Z,5.16
2022-11-27T05:28:04.244Z,5.13
2022-11-27T05:30:50.332Z,5.13
2022-11-27T05:33:36.377Z,5.12
2022-11-27T05:36:22.118Z,5.05
2022-11-27T05:39:08.714Z,5.08
2022-11-27T05:41:54.493Z,5.05
2022-11-27T05:44:40.510Z,5.07
2022-11-27T05:47:26.449Z,5.06
2022-11-27T05:50:12.322Z,5.07
2022-11-27T05:52:58.253Z,5.06
2022-11-27T05:55:43.925Z,5.04
2022-11-27T05:58:33.079Z,5.02
2022-11-27T06:01:19.790Z,4.95
2022-11-27T06:04:05.880Z,5.00
2022-11-27T06:06:51.815Z,5.02
2022-11-27T06:09:38.603Z,4.96
2022-11-27T06:12:24.590Z,4.86
2022-11-27T06:15:10.648Z,5.01
2022-11-27T06:17:56.628Z,5.03
2022-11-27T06:20:44.658Z,5.04
2022-11-27T06:23:34.054Z,5.01
2022-11-27T06:26:23.138Z,5.03
2022-11-27T06:29:16.150Z,5.09
2022-11-27T06:32:02.148Z,5.14
2022-11-27T06:34:48.249Z,5.13
2022-11-27T06:37:34.171Z,5.20
2022-11-27T06:40:20.128Z,5.23
2022-11-27T06:43:05.848Z,5.20
2022-11-27T06:45:56.749Z,5.19
2022-11-27T06:48:44.136Z,5.22
2022-11-27T06:51:31.434Z,5.19
2022-11-27T06:54:17.663Z,5.20
2022-11-27T06:57:04.567Z,5.21
2022-11-27T06:59:50.283Z,5.19
2022-11-27T07:02:36.402Z,5.23
2022-11-27T07:05:22.147Z,5.23
2022-11-27T07:08:08.187Z,5.20
2022-11-27T07:10:54.262Z,5.22
2022-11-27T07:13:40.857Z,5.25
2022-11-27T07:16:28.763Z,5.21
2022-11-27T07:19:14.859Z,5.25
2022-11-27T07:22:00.717Z,5.21
2022-11-27T07:24:46.665Z,5.21
2022-11-27T07:27:32.297Z,5.25
2022-11-27T07:30:18.150Z,5.27
2022-11-27T07:33:04.282Z,5.31
2022-11-27T07:35:50.309Z,5.36
2022-11-27T07:38:36.274Z,5.36
2022-11-27T07:41:22.348Z,5.43
2022-11-27T07:44:09.094Z,5.42
2022-11-27T07:46:55.076Z,5.46
2022-11-27T07:49:41.062Z,5.49
2022-11-27T07:52:27.381Z,5.53
2022-11-27T07:55:13.723Z,5.52
2022-11-27T07:57:59.775Z,5.59
2022-11-27T08:00:45.433Z,5.63
2022-11-27T08:03:31.124Z,5.67
2022-11-27T08:06:25.702Z,5.70
2022-11-27T08:09:11.579Z,5.77
2022-11-27T08:11:57.414Z,5.82
2022-11-27T08:14:43.260Z,5.86
2022-11-27T08:17:28.864Z,5.92
2022-11-27T08:20:14.691Z,6.02
2022-11-27T08:23:03.011Z,6.09
2022-11-27T08:25:49.117Z,6.18
2022-11-27T08:28:35.228Z,6.23
2022-11-27T08:31:21.915Z,6.28
2022-11-27T08:34:07.988Z,6.27
2022-11-27T08:36:53.905Z,6.37
2022-11-27T08:39:39.838Z,6.33
2022-11-27T08:42:25.696Z,6.46
2022-11-27T08:45:11.678Z,6.47
2022-11-27T08:47:58.160Z,6.50
2022-11-27T08:50:44.374Z,6.61
2022-11-27T08:53:31.506Z,6.59
2022-11-27T08:56:22.914Z,6.68
2022-11-27T08:59:09.230Z,6.78
2022-11-27T09:01:55.266Z,6.78
2022-11-27T09:04:41.513Z,6.80
2022-11-27T09:07:27.511Z,6.89
2022-11-27T09:10:13.691Z,6.95
2022-11-27T09:13:00.720Z,6.94
2022-11-27T09:15:46.493Z,6.98
2022-11-27T09:18:33.017Z,6.97
2022-11-27T09:21:20.792Z,7.02
2022-11-27T09:24:07.044Z,7.03
2022-11-27T09:26:52.812Z,6.98
2022-11-27T09:29:38.656Z,7.02
2022-11-27T09:32:24.488Z,7.04
2022-11-27T09:35:10.345Z,7.07
2022-11-27T09:37:56.322Z,7.06
2022-11-27T09:40:50.525Z,7.05
2022-11-27T09:43:42.308Z,7.08
2022-11-27T09:46:37.411Z,7.07
2022-11-27T09:49:29.636Z,7.08
2022-11-27T09:52:26.768Z,7.08
2022-11-27T09:55:22.816Z,7.09
2022-11-27T09:58:36.928Z,7.10
2022-11-27T10:01:38.532Z,7.17
2022-11-27T10:04:50.961Z,7.23
2022-11-27T10:08:03.318Z,7.22
2022-11-27T10:11:13.085Z,7.36
2022-11-27T10:14:17.539Z,7.39
2022-11-27T10:17:10.011Z,7.43
2022-11-27T10:20:03.979Z,7.48
2022-11-27T10:23:03.455Z,7.53
2022-11-27T10:25:51.941Z,7.57
2022-11-27T10:29:00.748Z,7.58
2022-11-27T10:31:50.753Z,7.65
2022-11-27T10:34:43.652Z,7.69
2022-11-27T10:37:41.808Z,7.72
2022-11-27T10:40:34.400Z,7.75
2022-11-27T10:43:23.386Z,7.76
2022-11-27T10:46:20.584Z,7.70
2022-11-27T10:49:06.555Z,7.67
2022-11-27T10:51:52.263Z,7.60
2022-11-27T10:54:39.550Z,7.57
2022-11-27T10:58:03.409Z,7.51
2022-11-27T11:01:02.759Z,7.46
2022-11-27T11:03:48.805Z,7.45
2022-11-27T11:06:40.785Z,7.43
2022-11-27T11:09:34.597Z,7.45
2022-11-27T11:12:22.678Z,7.47
2022-11-27T11:15:11.534Z,7.47
2022-11-27T11:17:57.147Z,7.44
2022-11-27T11:20:47.824Z,7.45
2022-11-27T11:23:36.238Z,7.44
2022-11-27T11:26:22.109Z,7.49
2022-11-27T11:29:24.517Z,7.50
2022-11-27T11:32:33.829Z,7.50
2022-11-27T11:35:32.239Z,7.54
2022-11-27T11:38:19.104Z,7.51
2022-11-27T11:41:07.244Z,7.54
2022-11-27T11:44:01.427Z,7.58
2022-11-27T11:46:51.461Z,7.56
2022-11-27T11:49:37.304Z,7.53
2022-11-27T11:52:50.685Z,7.53
2022-11-27T11:55:59.222Z,7.49
2022-11-27T11:59:19.384Z,7.43
2022-11-27T12:02:20.646Z,7.39
2022-11-27T12:05:32.485Z,7.34
2022-11-27T12:08:29.671Z,7.27
2022-11-27T12:11:20.478Z,7.25
2022-11-27T12:14:15.438Z,7.22
2022-11-27T12:17:32.482Z,7.20
2022-11-27T12:20:22.606Z,7.21
2022-11-27T12:23:28.258Z,7.21
2022-11-27T12:26:48.824Z,7.20
2022-11-27T12:29:51.552Z,7.20
2022-11-27T12:33:05.443Z,7.21
2022-11-27T12:35:51.244Z,7.24
2022-11-27T12:38:52.987Z,7.26
2022-11-27T12:41:51.985Z,7.29
2022-11-27T12:45:02.764Z,7.31
2022-11-27T12:48:06.124Z,7.31
2022-11-27T12:50:55.248Z,7.31
2022-11-27T12:53:42.812Z,7.31
2022-11-27T12:56:31.573Z,7.19
2022-11-27T12:59:27.724Z,7.28
2022-11-27T13:02:34.779Z,7.28
2022-11-27T13:05:24.923Z,7.24
2022-11-27T13:08:21.538Z,7.25
2022-11-27T13:11:10.964Z,7.27
2022-11-27T13:14:19.938Z,7.31
2022-11-27T13:17:10.473Z,7.34
2022-11-27T13:19:56.739Z,7.30
2022-11-27T13:22:43.322Z,7.38
2022-11-27T13:25:31.119Z,7.37
2022-11-27T13:28:41.889Z,7.35
2022-11-27T13:31:32.395Z,7.40
2022-11-27T13:34:21.802Z,7.40
2022-11-27T13:37:08.724Z,7.39
2022-11-27T13:40:05.585Z,7.39
2022-11-27T13:42:55.945Z,7.36
2022-11-27T13:45:42.133Z,7.37
2022-11-27T13:48:38.389Z,7.35
2022-11-27T13:51:29.410Z,7.29
2022-11-27T13:54:21.329Z,7.31
2022-11-27T13:57:21.238Z,7.37
2022-11-27T14:00:10.734Z,7.38
2022-11-27T14:03:01.186Z,7.38
2022-11-27T14:05:47.144Z,7.34
2022-11-27T14:08:34.989Z,7.30
2022-11-27T14:11:38.295Z,7.47
2022-11-27T14:14:25.803Z,7.47
2022-11-27T14:17:26.350Z,7.49
2022-11-27T14:20:18.540Z,7.51
2022-11-27T14:23:11.683Z,7.50
2022-11-27T14:26:15.230Z,7.56
2022-11-27T14:29:01.473Z,7.57
2022-11-27T14:31:57.708Z,7.59
2022-11-27T14:34:44.281Z,7.52
2022-11-27T14:37:30.481Z,7.56
2022-11-27T14:40:26.511Z,7.54
2022-11-27T14:43:18.615Z,7.53
2022-11-27T14:46:05.853Z,7.54
2022-11-27T14:48:56.523Z,7.52
2022-11-27T14:51:43.695Z,7.46
2022-11-27T14:54:33.175Z,7.47
2022-11-27T14:57:27.452Z,7.45
2022-11-27T15:00:16.998Z,7.43
2022-11-27T15:03:10.798Z,7.41
2022-11-27T15:06:16.244Z,7.36
2022-11-27T15:09:30.114Z,7.30
2022-11-27T15:12:22.329Z,7.25
2022-11-27T15:15:15.836Z,7.29
2022-11-27T15:18:06.824Z,7.23
2022-11-27T15:20:52.854Z,7.21
2022-11-27T15:23:45.451Z,7.16
2022-11-27T15:26:39.870Z,7.13
2022-11-27T15:29:38.264Z,7.08
2022-11-27T15:32:26.105Z,6.98
2022-11-27T15:35:16.097Z,6.95
2022-11-27T15:38:09.879Z,6.90
2022-11-27T15:41:00.893Z,6.87
2022-11-27T15:43:46.661Z,6.89
2022-11-27T15:46:34.777Z,6.87
2022-11-27T15:49:22.048Z,6.85
2022-11-27T15:52:07.857Z,6.79
2022-11-27T15:54:55.423Z,6.76
2022-11-27T15:57:41.513Z,6.79
2022-11-27T16:00:27.336Z,6.80
2022-11-27T16:03:14.286Z,6.79
2022-11-27T16:06:09.702Z,6.77
2022-11-27T16:08:59.138Z,6.71
2022-11-27T16:11:45.311Z,6.67
2022-11-27T16:14:31.450Z,6.61
2022-11-27T16:17:17.758Z,6.49
2022-11-27T16:20:04.382Z,6.41
2022-11-27T16:22:50.208Z,6.35
2022-11-27T16:25:38.870Z,6.32
2022-11-27T16:28:26.669Z,6.27
2022-11-27T16:31:15.022Z,6.19
2022-11-27T16:34:02.171Z,6.15
2022-11-27T16:36:49.591Z,6.12
2022-11-27T16:39:35.911Z,6.04
2022-11-27T16:42:22.147Z,5.97
2022-11-27T16:45:10.392Z,5.94
2022-11-27T16:47:57.275Z,5.90
2022-11-27T16:50:43.492Z,5.84
2022-11-27T16:53:30.864Z,5.81
2022-11-27T16:56:19.007Z,5.75
2022-11-27T16:59:10.410Z,5.75
2022-11-27T17:01:57.811Z,5.77
2022-11-27T17:04:44.608Z,5.68
2022-11-27T17:07:31.123Z,5.63
2022-11-27T17:10:17.225Z,5.69
2022-11-27T17:13:03.745Z,5.66
2022-11-27T17:15:50.438Z,5.60
2022-11-27T17:18:38.542Z,5.64
2022-11-27T17:21:28.909Z,5.62
2022-11-27T17:24:16.553Z,5.57
2022-11-27T17:27:03.732Z,5.57
2022-11-27T17:29:50.596Z,5.57
2022-11-27T17:32:37.467Z,5.58
2022-11-27T17:35:24.789Z,5.54
2022-11-27T17:38:11.468Z,5.56
2022-11-27T17:41:08.120Z,5.54
2022-11-27T17:43:54.897Z,5.58
2022-11-27T17:46:41.431Z,5.58
2022-11-27T17:49:28.121Z,5.56
2022-11-27T17:52:14.819Z,5.57
2022-11-27T17:55:02.334Z,5.52
2022-11-27T17:57:49.918Z,5.52
2022-11-27T18:00:38.278Z,5.49
2022-11-27T18:03:25.061Z,5.50
2022-11-27T18:06:12.196Z,5.56
2022-11-27T18:08:58.959Z,5.56
2022-11-27T18:11:45.001Z,5.60
2022-11-27T18:14:31.500Z,5.64
2022-11-27T18:17:19.432Z,5.71
2022-11-27T18:20:06.492Z,5.73
2022-11-27T18:22:52.721Z,5.79
2022-11-27T18:25:47.576Z,5.78
2022-11-27T18:28:38.143Z,5.82
2022-11-27T18:31:25.608Z,5.84
2022-11-27T18:34:12.090Z,5.82
2022-11-27T18:36:59.715Z,5.90
2022-11-27T18:39:47.140Z,5.90
2022-11-27T18:42:33.223Z,5.91
2022-11-27T18:45:32.306Z,5.94
2022-11-27T18:48:19.519Z,5.90
2022-11-27T18:51:09.039Z,5.99
2022-11-27T18:53:56.689Z,5.99
2022-11-27T18:56:43.534Z,5.99
2022-11-27T18:59:30.106Z,5.98
2022-11-27T19:02:16.637Z,6.04
2022-11-27T19:05:03.103Z,6.00
2022-11-27T19:07:49.737Z,6.03
2022-11-27T19:10:37.725Z,6.01
2022-11-27T19:13:24.067Z,6.03
2022-11-27T19:16:16.984Z,6.04
2022-11-27T19:19:05.511Z,5.98
2022-11-27T19:21:53.705Z,6.03
2022-11-27T19:24:40.071Z,6.00
2022-11-27T19:27:26.527Z,6.01
2022-11-27T19:30:13.648Z,5.97
2022-11-27T19:33:00.331Z,5.96
2022-11-27T19:35:46.990Z,5.95
2022-11-27T19:38:34.822Z,5.92
2022-11-27T19:41:21.907Z,5.88
2022-11-27T19:44:08.309Z,5.89
2022-11-27T19:46:54.996Z,5.85
2022-11-27T19:49:42.460Z,5.89
2022-11-27T19:52:28.910Z,5.85
2022-11-27T19:55:15.858Z,5.89
2022-11-27T19:58:02.935Z,5.88
2022-11-27T20:00:49.719Z,5.88
2022-11-27T20:03:36.057Z,5.85
2022-11-27T20:06:23.801Z,5.83
2022-11-27T20:09:10.898Z,5.80
2022-11-27T20:12:00.167Z,5.78
2022-11-27T20:14:46.928Z,5.68
2022-11-27T20:17:33.839Z,5.70
2022-11-27T20:20:21.550Z,5.66
2022-11-27T20:23:07.867Z,5.69
2022-11-27T20:25:54.084Z,5.65
2022-11-27T20:28:41.423Z,5.62
2022-11-27T20:31:32.274Z,5.58
2022-11-27T20:34:20.837Z,5.55
2022-11-27T20:37:06.936Z,5.44
2022-11-27T20:39:53.114Z,5.51
2022-11-27T20:42:39.475Z,5.46
2022-11-27T20:45:26.395Z,5.47
2022-11-27T20:48:12.656Z,5.42
2022-11-27T20:51:09.258Z,5.42
2022-11-27T20:53:58.105Z,5.39
2022-11-27T20:56:45.752Z,5.32
2022-11-27T20:59:31.600Z,5.36
2022-11-27T21:02:18.604Z,5.29
2022-11-27T21:05:05.266Z,5.19
2022-11-27T21:07:53.245Z,5.28
2022-11-27T21:10:39.289Z,5.27
2022-11-27T21:13:25.539Z,5.25
2022-11-27T21:16:13.916Z,5.29
2022-11-27T21:19:03.013Z,5.32
2022-11-27T21:21:50.657Z,5.33
2022-11-27T21:24:37.651Z,5.35
2022-11-27T21:27:24.393Z,5.36
2022-11-27T21:30:11.108Z,5.37
2022-11-27T21:32:57.482Z,5.38
2022-11-27T21:35:43.829Z,5.41
2022-11-27T21:38:30.586Z,5.44
2022-11-27T21:41:17.866Z,5.42
2022-11-27T21:44:05.262Z,5.45
2022-11-27T21:46:52.711Z,5.48
2022-11-27T21:49:39.831Z,5.46
2022-11-27T21:52:27.876Z,5.50
2022-11-27T21:55:13.919Z,5.46
2022-11-27T21:58:00.238Z,5.48
2022-11-27T22:00:46.515Z,5.50
2022-11-27T22:03:33.606Z,5.54
2022-11-27T22:06:20.619Z,5.54
2022-11-27T22:09:12.001Z,5.54
2022-11-27T22:12:05.707Z,5.51
2022-11-27T22:14:51.711Z,5.53
2022-11-27T22:17:38.688Z,5.52
2022-11-27T22:20:24.673Z,5.55
2022-11-27T22:23:12.106Z,5.45
2022-11-27T22:26:02.037Z,5.53
2022-11-27T22:28:48.639Z,5.55
2022-11-27T22:31:34.393Z,5.58
2022-11-27T22:34:23.166Z,5.55
2022-11-27T22:37:09.299Z,5.57
2022-11-27T22:39:55.059Z,5.55
2022-11-27T22:42:41.071Z,5.55
2022-11-27T22:45:27.379Z,5.55
2022-11-27T22:48:13.262Z,5.52
2022-11-27T22:50:59.795Z,5.56
2022-11-27T22:53:45.877Z,5.55
2022-11-27T22:56:36.024Z,5.56
2022-11-27T22:59:38.363Z,5.55
2022-11-27T23:02:24.745Z,5.53
2022-11-27T23:05:10.925Z,5.51
2022-11-27T23:07:57.052Z,5.46
2022-11-27T23:10:42.966Z,5.47
2022-11-27T23:13:28.741Z,5.46
2022-11-27T23:16:14.787Z,5.42
2022-11-27T23:19:00.468Z,5.37
2022-11-27T23:21:46.503Z,5.38
2022-11-27T23:24:32.609Z,5.36
2022-11-27T23:27:18.339Z,5.38
2022-11-27T23:30:04.902Z,5.38
2022-11-27T23:32:52.121Z,5.35
2022-11-27T23:35:37.944Z,5.30
2022-11-27T23:38:24.130Z,5.36
2022-11-27T23:41:10.893Z,5.39
2022-11-27T23:43:57.382Z,5.37
2022-11-27T23:46:43.259Z,5.37
2022-11-27T23:49:29.029Z,5.35
2022-11-27T23:52:17.224Z,5.40
2022-11-27T23:55:03.383Z,5.37
2022-11-27T23:57:49.505Z,5.38
